Terminal Aerodrome Forecast
Issued by NWS

Home | Current Version | Previous Version | Text Only | Print | Product List | Glossary On
Versions: 1 2 3 4 5 6 7 8 9 10 11 12 13 14 15 16
000
FTUS44 KOUN 200048 RRA
TAFCSM
TAF
KCSM 200048Z 2001/2024 14010KT 3SM BR SCT008 OVC100
      TEMPO 2006/2008 1/2SM FG OVC004
     FM200900 19013KT P6SM SCT015 BKN100=

USA.gov is the U.S. government's official web portal to all federal, state and local government web resources and services.